sensor_id;sensor_type;location;lat;lon;timestamp;P1;durP1;ratioP1;P2;durP2;ratioP2
37205;SDS011;23099;42.636;23.198;2022-09-06T00:01:21;6.93;;;3.22;;
37205;SDS011;23099;42.636;23.198;2022-09-06T00:03:48;7.45;;;3.35;;
37205;SDS011;23099;42.636;23.198;2022-09-06T00:06:16;5.97;;;2.88;;
37205;SDS011;23099;42.636;23.198;2022-09-06T00:08:46;12.00;;;3.78;;
37205;SDS011;23099;42.636;23.198;2022-09-06T00:11:14;8.60;;;3.40;;
37205;SDS011;23099;42.636;23.198;2022-09-06T00:13:42;7.93;;;3.47;;
37205;SDS011;23099;42.636;23.198;2022-09-06T00:16:10;9.85;;;3.65;;
37205;SDS011;23099;42.636;23.198;2022-09-06T00:18:39;10.20;;;3.50;;
37205;SDS011;23099;42.636;23.198;2022-09-06T00:21:12;10.35;;;3.72;;
37205;SDS011;23099;42.636;23.198;2022-09-06T00:23:41;8.50;;;3.90;;
37205;SDS011;23099;42.636;23.198;2022-09-06T00:26:09;7.95;;;3.60;;
37205;SDS011;23099;42.636;23.198;2022-09-06T00:28:36;6.97;;;3.17;;
37205;SDS011;23099;42.636;23.198;2022-09-06T00:31:09;13.02;;;3.58;;
37205;SDS011;23099;42.636;23.198;2022-09-06T00:33:37;7.97;;;3.88;;
37205;SDS011;23099;42.636;23.198;2022-09-06T00:36:04;8.90;;;4.00;;
37205;SDS011;23099;42.636;23.198;2022-09-06T00:38:31;7.37;;;3.57;;
37205;SDS011;23099;42.636;23.198;2022-09-06T00:40:58;7.03;;;3.17;;
37205;SDS011;23099;42.636;23.198;2022-09-06T00:43:26;7.90;;;3.40;;
37205;SDS011;23099;42.636;23.198;2022-09-06T00:45:53;6.30;;;2.95;;
37205;SDS011;23099;42.636;23.198;2022-09-06T00:48:21;6.67;;;3.67;;
37205;SDS011;23099;42.636;23.198;2022-09-06T00:50:49;7.72;;;3.70;;
37205;SDS011;23099;42.636;23.198;2022-09-06T00:53:18;6.15;;;3.08;;
37205;SDS011;23099;42.636;23.198;2022-09-06T00:55:46;7.67;;;3.67;;
37205;SDS011;23099;42.636;23.198;2022-09-06T00:58:13;9.32;;;3.60;;
37205;SDS011;23099;42.636;23.198;2022-09-06T01:00:41;6.22;;;2.80;;
37205;SDS011;23099;42.636;23.198;2022-09-06T01:03:08;6.60;;;3.13;;
37205;SDS011;23099;42.636;23.198;2022-09-06T01:05:39;9.23;;;3.42;;
37205;SDS011;23099;42.636;23.198;2022-09-06T01:08:14;10.05;;;3.83;;
37205;SDS011;23099;42.636;23.198;2022-09-06T01:10:52;9.52;;;4.30;;
37205;SDS011;23099;42.636;23.198;2022-09-06T01:13:39;10.10;;;3.45;;
37205;SDS011;23099;42.636;23.198;2022-09-06T01:16:20;10.95;;;3.88;;
37205;SDS011;23099;42.636;23.198;2022-09-06T01:19:03;11.27;;;4.03;;
37205;SDS011;23099;42.636;23.198;2022-09-06T01:21:44;8.52;;;3.88;;
37205;SDS011;23099;42.636;23.198;2022-09-06T01:24:23;8.75;;;3.80;;
37205;SDS011;23099;42.636;23.198;2022-09-06T01:30:23;10.75;;;3.67;;
37205;SDS011;23099;42.636;23.198;2022-09-06T01:32:52;9.27;;;4.35;;
37205;SDS011;23099;42.636;23.198;2022-09-06T01:35:26;11.88;;;4.43;;
37205;SDS011;23099;42.636;23.198;2022-09-06T01:37:58;9.82;;;4.55;;
37205;SDS011;23099;42.636;23.198;2022-09-06T01:40:26;11.70;;;4.65;;
37205;SDS011;23099;42.636;23.198;2022-09-06T01:42:54;10.95;;;4.50;;
37205;SDS011;23099;42.636;23.198;2022-09-06T01:45:24;9.82;;;3.90;;
37205;SDS011;23099;42.636;23.198;2022-09-06T01:48:01;13.02;;;4.20;;
37205;SDS011;23099;42.636;23.198;2022-09-06T01:50:45;10.45;;;4.15;;
37205;SDS011;23099;42.636;23.198;2022-09-06T01:53:33;9.02;;;3.95;;
37205;SDS011;23099;42.636;23.198;2022-09-06T01:56:13;9.00;;;3.50;;
37205;SDS011;23099;42.636;23.198;2022-09-06T01:58:57;12.00;;;3.88;;
37205;SDS011;23099;42.636;23.198;2022-09-06T02:01:34;8.57;;;4.07;;
37205;SDS011;23099;42.636;23.198;2022-09-06T02:04:08;8.13;;;3.63;;
37205;SDS011;23099;42.636;23.198;2022-09-06T02:06:42;8.18;;;3.90;;
37205;SDS011;23099;42.636;23.198;2022-09-06T02:09:13;9.15;;;3.50;;
37205;SDS011;23099;42.636;23.198;2022-09-06T02:11:44;11.15;;;3.90;;
37205;SDS011;23099;42.636;23.198;2022-09-06T02:14:16;11.13;;;4.55;;
37205;SDS011;23099;42.636;23.198;2022-09-06T02:16:49;9.00;;;4.00;;
37205;SDS011;23099;42.636;23.198;2022-09-06T02:19:20;8.02;;;3.70;;
37205;SDS011;23099;42.636;23.198;2022-09-06T02:21:52;8.43;;;3.67;;
37205;SDS011;23099;42.636;23.198;2022-09-06T02:24:24;13.52;;;4.60;;
37205;SDS011;23099;42.636;23.198;2022-09-06T02:26:55;8.48;;;3.88;;
37205;SDS011;23099;42.636;23.198;2022-09-06T02:29:24;15.07;;;4.55;;
37205;SDS011;23099;42.636;23.198;2022-09-06T02:31:51;9.90;;;3.78;;
37205;SDS011;23099;42.636;23.198;2022-09-06T02:34:20;6.53;;;3.63;;
37205;SDS011;23099;42.636;23.198;2022-09-06T02:36:47;8.07;;;3.92;;
37205;SDS011;23099;42.636;23.198;2022-09-06T02:39:15;10.65;;;3.92;;
37205;SDS011;23099;42.636;23.198;2022-09-06T02:41:42;8.95;;;4.10;;
37205;SDS011;23099;42.636;23.198;2022-09-06T02:44:12;11.05;;;4.72;;
37205;SDS011;23099;42.636;23.198;2022-09-06T02:46:40;8.95;;;4.10;;
37205;SDS011;23099;42.636;23.198;2022-09-06T02:49:07;10.30;;;4.03;;
37205;SDS011;23099;42.636;23.198;2022-09-06T02:51:35;13.10;;;4.45;;
37205;SDS011;23099;42.636;23.198;2022-09-06T02:54:02;7.93;;;4.53;;
37205;SDS011;23099;42.636;23.198;2022-09-06T02:56:29;8.35;;;4.30;;
37205;SDS011;23099;42.636;23.198;2022-09-06T02:58:57;9.10;;;4.03;;
37205;SDS011;23099;42.636;23.198;2022-09-06T03:01:24;10.85;;;4.05;;
37205;SDS011;23099;42.636;23.198;2022-09-06T03:03:52;10.60;;;4.00;;
37205;SDS011;23099;42.636;23.198;2022-09-06T03:06:20;9.32;;;4.55;;
37205;SDS011;23099;42.636;23.198;2022-09-06T03:08:46;8.85;;;3.97;;
37205;SDS011;23099;42.636;23.198;2022-09-06T03:11:13;11.50;;;3.97;;
37205;SDS011;23099;42.636;23.198;2022-09-06T03:13:40;10.02;;;4.38;;
37205;SDS011;23099;42.636;23.198;2022-09-06T03:16:07;11.35;;;4.05;;
37205;SDS011;23099;42.636;23.198;2022-09-06T03:18:34;9.93;;;4.32;;
37205;SDS011;23099;42.636;23.198;2022-09-06T03:21:03;8.20;;;4.32;;
37205;SDS011;23099;42.636;23.198;2022-09-06T03:23:29;8.70;;;3.90;;
37205;SDS011;23099;42.636;23.198;2022-09-06T03:25:56;9.70;;;4.03;;
37205;SDS011;23099;42.636;23.198;2022-09-06T03:28:23;9.65;;;4.22;;
37205;SDS011;23099;42.636;23.198;2022-09-06T03:30:50;11.77;;;4.00;;
37205;SDS011;23099;42.636;23.198;2022-09-06T03:33:17;10.68;;;4.47;;
37205;SDS011;23099;42.636;23.198;2022-09-06T03:35:47;10.80;;;4.40;;
37205;SDS011;23099;42.636;23.198;2022-09-06T03:38:17;12.82;;;4.72;;
37205;SDS011;23099;42.636;23.198;2022-09-06T03:43:11;8.77;;;4.30;;
37205;SDS011;23099;42.636;23.198;2022-09-06T03:45:37;10.45;;;4.28;;
37205;SDS011;23099;42.636;23.198;2022-09-06T03:48:04;10.15;;;4.15;;
37205;SDS011;23099;42.636;23.198;2022-09-06T03:50:31;10.75;;;4.60;;
37205;SDS011;23099;42.636;23.198;2022-09-06T03:52:58;8.30;;;4.13;;
37205;SDS011;23099;42.636;23.198;2022-09-06T03:55:26;8.60;;;3.88;;
37205;SDS011;23099;42.636;23.198;2022-09-06T03:57:53;12.40;;;4.00;;
37205;SDS011;23099;42.636;23.198;2022-09-06T04:00:19;7.65;;;4.20;;
37205;SDS011;23099;42.636;23.198;2022-09-06T04:02:48;7.47;;;4.30;;
37205;SDS011;23099;42.636;23.198;2022-09-06T04:05:15;9.88;;;4.18;;
37205;SDS011;23099;42.636;23.198;2022-09-06T04:07:42;7.68;;;4.43;;
37205;SDS011;23099;42.636;23.198;2022-09-06T04:10:09;11.15;;;4.40;;
37205;SDS011;23099;42.636;23.198;2022-09-06T04:12:37;11.40;;;4.78;;
37205;SDS011;23099;42.636;23.198;2022-09-06T04:15:04;9.85;;;4.32;;
37205;SDS011;23099;42.636;23.198;2022-09-06T04:17:32;11.68;;;4.97;;
37205;SDS011;23099;42.636;23.198;2022-09-06T04:19:58;9.27;;;4.40;;
37205;SDS011;23099;42.636;23.198;2022-09-06T04:22:25;10.50;;;4.57;;
37205;SDS011;23099;42.636;23.198;2022-09-06T04:24:52;9.48;;;4.10;;
37205;SDS011;23099;42.636;23.198;2022-09-06T04:27:19;9.32;;;4.55;;
37205;SDS011;23099;42.636;23.198;2022-09-06T04:29:47;12.52;;;4.22;;
37205;SDS011;23099;42.636;23.198;2022-09-06T04:32:13;9.85;;;4.32;;
37205;SDS011;23099;42.636;23.198;2022-09-06T04:34:40;13.00;;;5.00;;
37205;SDS011;23099;42.636;23.198;2022-09-06T04:37:07;8.15;;;4.18;;
37205;SDS011;23099;42.636;23.198;2022-09-06T04:39:34;8.10;;;4.10;;
37205;SDS011;23099;42.636;23.198;2022-09-06T04:42:00;8.13;;;4.50;;
37205;SDS011;23099;42.636;23.198;2022-09-06T04:44:27;9.48;;;4.90;;
37205;SDS011;23099;42.636;23.198;2022-09-06T04:47:03;11.40;;;5.13;;
37205;SDS011;23099;42.636;23.198;2022-09-06T04:49:31;12.55;;;5.20;;
37205;SDS011;23099;42.636;23.198;2022-09-06T04:51:58;11.38;;;5.40;;
37205;SDS011;23099;42.636;23.198;2022-09-06T04:54:25;9.65;;;4.82;;
37205;SDS011;23099;42.636;23.198;2022-09-06T04:56:51;9.05;;;4.40;;
37205;SDS011;23099;42.636;23.198;2022-09-06T04:59:18;7.55;;;4.65;;
37205;SDS011;23099;42.636;23.198;2022-09-06T05:01:45;11.70;;;4.90;;
37205;SDS011;23099;42.636;23.198;2022-09-06T05:04:13;9.02;;;4.88;;
37205;SDS011;23099;42.636;23.198;2022-09-06T05:06:39;9.52;;;4.82;;
37205;SDS011;23099;42.636;23.198;2022-09-06T05:09:07;9.73;;;5.00;;
37205;SDS011;23099;42.636;23.198;2022-09-06T05:11:33;11.00;;;5.20;;
37205;SDS011;23099;42.636;23.198;2022-09-06T05:14:00;12.02;;;5.18;;
37205;SDS011;23099;42.636;23.198;2022-09-06T05:16:27;10.25;;;5.15;;
37205;SDS011;23099;42.636;23.198;2022-09-06T05:18:53;10.48;;;5.28;;
37205;SDS011;23099;42.636;23.198;2022-09-06T05:21:21;12.18;;;5.85;;
37205;SDS011;23099;42.636;23.198;2022-09-06T05:23:48;10.85;;;6.28;;
37205;SDS011;23099;42.636;23.198;2022-09-06T05:26:15;9.75;;;5.63;;
37205;SDS011;23099;42.636;23.198;2022-09-06T05:28:42;10.35;;;5.60;;
37205;SDS011;23099;42.636;23.198;2022-09-06T05:31:09;10.77;;;6.05;;
37205;SDS011;23099;42.636;23.198;2022-09-06T05:33:37;10.27;;;6.20;;
37205;SDS011;23099;42.636;23.198;2022-09-06T05:36:04;13.25;;;6.03;;
37205;SDS011;23099;42.636;23.198;2022-09-06T05:38:33;12.15;;;6.80;;
37205;SDS011;23099;42.636;23.198;2022-09-06T05:41:00;14.05;;;8.63;;
37205;SDS011;23099;42.636;23.198;2022-09-06T05:43:27;15.77;;;9.10;;
37205;SDS011;23099;42.636;23.198;2022-09-06T05:45:53;17.70;;;9.80;;
37205;SDS011;23099;42.636;23.198;2022-09-06T05:48:20;20.42;;;10.85;;
37205;SDS011;23099;42.636;23.198;2022-09-06T05:50:47;18.95;;;10.70;;
37205;SDS011;23099;42.636;23.198;2022-09-06T05:53:24;14.95;;;9.70;;
37205;SDS011;23099;42.636;23.198;2022-09-06T05:55:52;15.07;;;9.80;;
37205;SDS011;23099;42.636;23.198;2022-09-06T05:58:18;15.77;;;9.70;;
37205;SDS011;23099;42.636;23.198;2022-09-06T06:00:45;15.63;;;9.95;;
37205;SDS011;23099;42.636;23.198;2022-09-06T06:03:12;15.93;;;9.88;;
37205;SDS011;23099;42.636;23.198;2022-09-06T06:05:39;19.38;;;11.40;;
37205;SDS011;23099;42.636;23.198;2022-09-06T06:08:05;20.65;;;14.27;;
37205;SDS011;23099;42.636;23.198;2022-09-06T06:10:32;20.92;;;15.00;;
37205;SDS011;23099;42.636;23.198;2022-09-06T06:13:01;20.88;;;11.00;;
37205;SDS011;23099;42.636;23.198;2022-09-06T06:15:28;13.98;;;8.30;;
37205;SDS011;23099;42.636;23.198;2022-09-06T06:20:22;10.00;;;6.55;;
37205;SDS011;23099;42.636;23.198;2022-09-06T06:22:49;13.45;;;6.90;;
37205;SDS011;23099;42.636;23.198;2022-09-06T06:25:16;10.07;;;6.05;;
37205;SDS011;23099;42.636;23.198;2022-09-06T06:27:47;11.45;;;6.78;;
37205;SDS011;23099;42.636;23.198;2022-09-06T06:30:15;13.25;;;6.60;;
37205;SDS011;23099;42.636;23.198;2022-09-06T06:32:41;14.35;;;6.72;;
37205;SDS011;23099;42.636;23.198;2022-09-06T06:35:08;12.02;;;6.75;;
37205;SDS011;23099;42.636;23.198;2022-09-06T06:37:35;11.02;;;6.20;;
37205;SDS011;23099;42.636;23.198;2022-09-06T06:40:02;9.68;;;6.35;;
37205;SDS011;23099;42.636;23.198;2022-09-06T06:42:30;10.98;;;6.13;;
37205;SDS011;23099;42.636;23.198;2022-09-06T06:44:56;11.13;;;6.40;;
37205;SDS011;23099;42.636;23.198;2022-09-06T06:47:24;12.07;;;5.90;;
37205;SDS011;23099;42.636;23.198;2022-09-06T06:49:51;11.32;;;5.57;;
37205;SDS011;23099;42.636;23.198;2022-09-06T06:52:18;10.13;;;5.72;;
37205;SDS011;23099;42.636;23.198;2022-09-06T06:54:46;9.60;;;5.53;;
37205;SDS011;23099;42.636;23.198;2022-09-06T06:57:13;9.13;;;5.22;;
37205;SDS011;23099;42.636;23.198;2022-09-06T06:59:39;13.65;;;5.45;;
37205;SDS011;23099;42.636;23.198;2022-09-06T07:02:06;9.15;;;5.20;;
37205;SDS011;23099;42.636;23.198;2022-09-06T07:04:34;11.45;;;5.63;;
37205;SDS011;23099;42.636;23.198;2022-09-06T07:07:01;10.38;;;5.97;;
37205;SDS011;23099;42.636;23.198;2022-09-06T07:09:29;10.55;;;5.88;;
37205;SDS011;23099;42.636;23.198;2022-09-06T07:11:55;12.82;;;5.10;;
37205;SDS011;23099;42.636;23.198;2022-09-06T07:14:22;9.63;;;4.90;;
37205;SDS011;23099;42.636;23.198;2022-09-06T07:16:49;9.00;;;5.00;;
37205;SDS011;23099;42.636;23.198;2022-09-06T07:19:22;7.88;;;4.63;;
37205;SDS011;23099;42.636;23.198;2022-09-06T07:21:50;9.37;;;4.67;;
37205;SDS011;23099;42.636;23.198;2022-09-06T07:24:17;10.27;;;4.50;;
37205;SDS011;23099;42.636;23.198;2022-09-06T07:26:44;11.73;;;5.25;;
37205;SDS011;23099;42.636;23.198;2022-09-06T07:29:10;8.90;;;4.57;;
37205;SDS011;23099;42.636;23.198;2022-09-06T07:31:37;11.52;;;4.90;;
37205;SDS011;23099;42.636;23.198;2022-09-06T07:34:04;10.70;;;4.75;;
37205;SDS011;23099;42.636;23.198;2022-09-06T07:36:31;8.90;;;4.80;;
37205;SDS011;23099;42.636;23.198;2022-09-06T07:38:59;8.93;;;4.57;;
37205;SDS011;23099;42.636;23.198;2022-09-06T07:41:25;8.25;;;4.40;;
37205;SDS011;23099;42.636;23.198;2022-09-06T07:43:52;11.63;;;4.75;;
37205;SDS011;23099;42.636;23.198;2022-09-06T07:46:19;12.15;;;4.90;;
37205;SDS011;23099;42.636;23.198;2022-09-06T07:48:47;11.82;;;5.30;;
37205;SDS011;23099;42.636;23.198;2022-09-06T07:51:15;11.70;;;5.22;;
37205;SDS011;23099;42.636;23.198;2022-09-06T07:53:43;10.63;;;5.40;;
37205;SDS011;23099;42.636;23.198;2022-09-06T07:56:16;9.75;;;4.93;;
37205;SDS011;23099;42.636;23.198;2022-09-06T07:58:44;9.10;;;4.97;;
37205;SDS011;23099;42.636;23.198;2022-09-06T08:01:15;10.98;;;4.60;;
37205;SDS011;23099;42.636;23.198;2022-09-06T08:03:43;9.55;;;5.22;;
37205;SDS011;23099;42.636;23.198;2022-09-06T08:06:11;9.40;;;5.18;;
37205;SDS011;23099;42.636;23.198;2022-09-06T08:08:38;11.40;;;5.15;;
37205;SDS011;23099;42.636;23.198;2022-09-06T08:11:05;10.45;;;5.28;;
37205;SDS011;23099;42.636;23.198;2022-09-06T08:13:34;9.20;;;5.28;;
37205;SDS011;23099;42.636;23.198;2022-09-06T08:16:02;11.15;;;6.18;;
37205;SDS011;23099;42.636;23.198;2022-09-06T08:18:30;13.32;;;5.97;;
37205;SDS011;23099;42.636;23.198;2022-09-06T08:21:04;14.20;;;5.68;;
37205;SDS011;23099;42.636;23.198;2022-09-06T08:23:31;10.95;;;5.82;;
37205;SDS011;23099;42.636;23.198;2022-09-06T08:25:58;10.63;;;6.15;;
37205;SDS011;23099;42.636;23.198;2022-09-06T08:28:25;10.23;;;5.75;;
37205;SDS011;23099;42.636;23.198;2022-09-06T08:30:53;10.65;;;5.53;;
37205;SDS011;23099;42.636;23.198;2022-09-06T08:33:20;12.65;;;5.63;;
37205;SDS011;23099;42.636;23.198;2022-09-06T08:35:55;14.02;;;5.85;;
37205;SDS011;23099;42.636;23.198;2022-09-06T08:38:23;9.82;;;5.30;;
37205;SDS011;23099;42.636;23.198;2022-09-06T08:40:50;10.82;;;5.13;;
37205;SDS011;23099;42.636;23.198;2022-09-06T08:43:18;12.30;;;5.53;;
37205;SDS011;23099;42.636;23.198;2022-09-06T08:45:48;9.18;;;5.00;;
37205;SDS011;23099;42.636;23.198;2022-09-06T08:48:19;9.65;;;4.60;;
37205;SDS011;23099;42.636;23.198;2022-09-06T08:50:49;9.60;;;5.40;;
37205;SDS011;23099;42.636;23.198;2022-09-06T08:53:25;8.10;;;4.50;;
37205;SDS011;23099;42.636;23.198;2022-09-06T08:55:54;8.70;;;4.72;;
37205;SDS011;23099;42.636;23.198;2022-09-06T08:58:34;12.43;;;4.93;;
37205;SDS011;23099;42.636;23.198;2022-09-06T09:01:10;9.35;;;5.13;;
37205;SDS011;23099;42.636;23.198;2022-09-06T09:03:41;10.57;;;5.85;;
37205;SDS011;23099;42.636;23.198;2022-09-06T09:06:09;12.00;;;5.47;;
37205;SDS011;23099;42.636;23.198;2022-09-06T09:08:38;7.95;;;4.75;;
37205;SDS011;23099;42.636;23.198;2022-09-06T09:11:13;9.13;;;5.07;;
37205;SDS011;23099;42.636;23.198;2022-09-06T09:13:46;8.38;;;5.13;;
37205;SDS011;23099;42.636;23.198;2022-09-06T09:16:18;9.65;;;4.95;;
37205;SDS011;23099;42.636;23.198;2022-09-06T09:18:48;13.80;;;5.55;;
37205;SDS011;23099;42.636;23.198;2022-09-06T09:21:19;9.43;;;5.57;;
37205;SDS011;23099;42.636;23.198;2022-09-06T09:23:49;8.68;;;5.40;;
37205;SDS011;23099;42.636;23.198;2022-09-06T09:26:18;9.68;;;5.43;;
37205;SDS011;23099;42.636;23.198;2022-09-06T09:29:03;11.40;;;5.15;;
37205;SDS011;23099;42.636;23.198;2022-09-06T09:31:32;8.13;;;4.82;;
37205;SDS011;23099;42.636;23.198;2022-09-06T09:34:02;44.75;;;16.15;;
37205;SDS011;23099;42.636;23.198;2022-09-06T09:38:56;19.73;;;7.63;;
37205;SDS011;23099;42.636;23.198;2022-09-06T09:41:24;15.45;;;6.15;;
37205;SDS011;23099;42.636;23.198;2022-09-06T09:43:55;36.35;;;12.10;;
37205;SDS011;23099;42.636;23.198;2022-09-06T09:46:28;11.98;;;5.05;;
37205;SDS011;23099;42.636;23.198;2022-09-06T09:49:05;10.63;;;7.03;;
37205;SDS011;23099;42.636;23.198;2022-09-06T09:51:34;46.60;;;16.73;;
37205;SDS011;23099;42.636;23.198;2022-09-06T09:54:02;11.55;;;4.35;;
37205;SDS011;23099;42.636;23.198;2022-09-06T09:56:36;8.45;;;4.70;;
37205;SDS011;23099;42.636;23.198;2022-09-06T09:59:07;27.00;;;10.10;;
37205;SDS011;23099;42.636;23.198;2022-09-06T10:04:16;14.90;;;6.28;;
37205;SDS011;23099;42.636;23.198;2022-09-06T10:06:44;9.07;;;4.25;;
37205;SDS011;23099;42.636;23.198;2022-09-06T10:09:11;7.78;;;3.95;;
37205;SDS011;23099;42.636;23.198;2022-09-06T10:11:47;10.80;;;4.63;;
37205;SDS011;23099;42.636;23.198;2022-09-06T10:14:23;7.45;;;3.92;;
37205;SDS011;23099;42.636;23.198;2022-09-06T10:16:52;8.10;;;4.07;;
37205;SDS011;23099;42.636;23.198;2022-09-06T10:19:33;8.70;;;4.00;;
37205;SDS011;23099;42.636;23.198;2022-09-06T10:22:07;8.80;;;3.75;;
37205;SDS011;23099;42.636;23.198;2022-09-06T10:24:48;7.97;;;4.18;;
37205;SDS011;23099;42.636;23.198;2022-09-06T10:27:34;8.93;;;3.70;;
37205;SDS011;23099;42.636;23.198;2022-09-06T10:30:09;7.60;;;4.07;;
37205;SDS011;23099;42.636;23.198;2022-09-06T10:32:39;6.07;;;3.20;;
37205;SDS011;23099;42.636;23.198;2022-09-06T10:35:10;6.28;;;3.67;;
37205;SDS011;23099;42.636;23.198;2022-09-06T10:37:44;6.60;;;3.20;;
37205;SDS011;23099;42.636;23.198;2022-09-06T10:40:18;8.55;;;3.45;;
37205;SDS011;23099;42.636;23.198;2022-09-06T10:42:54;6.72;;;2.70;;
37205;SDS011;23099;42.636;23.198;2022-09-06T10:45:29;5.18;;;2.50;;
37205;SDS011;23099;42.636;23.198;2022-09-06T10:48:08;9.75;;;3.35;;
37205;SDS011;23099;42.636;23.198;2022-09-06T10:50:44;9.95;;;3.40;;
37205;SDS011;23099;42.636;23.198;2022-09-06T10:53:21;7.95;;;3.53;;
37205;SDS011;23099;42.636;23.198;2022-09-06T10:55:59;7.43;;;3.33;;
37205;SDS011;23099;42.636;23.198;2022-09-06T10:58:30;7.72;;;3.05;;
37205;SDS011;23099;42.636;23.198;2022-09-06T11:01:01;7.45;;;3.42;;
37205;SDS011;23099;42.636;23.198;2022-09-06T11:03:29;7.22;;;3.20;;
37205;SDS011;23099;42.636;23.198;2022-09-06T11:06:02;9.07;;;3.55;;
37205;SDS011;23099;42.636;23.198;2022-09-06T11:08:35;6.05;;;3.30;;
37205;SDS011;23099;42.636;23.198;2022-09-06T11:11:10;6.88;;;3.15;;
37205;SDS011;23099;42.636;23.198;2022-09-06T11:13:42;7.57;;;2.78;;
37205;SDS011;23099;42.636;23.198;2022-09-06T11:16:10;5.25;;;2.60;;
37205;SDS011;23099;42.636;23.198;2022-09-06T11:18:41;7.60;;;2.50;;
37205;SDS011;23099;42.636;23.198;2022-09-06T11:24:21;5.53;;;2.00;;
37205;SDS011;23099;42.636;23.198;2022-09-06T11:26:59;5.00;;;2.15;;
37205;SDS011;23099;42.636;23.198;2022-09-06T11:29:31;5.32;;;2.40;;
37205;SDS011;23099;42.636;23.198;2022-09-06T11:32:00;5.10;;;2.42;;
37205;SDS011;23099;42.636;23.198;2022-09-06T11:34:28;7.85;;;2.35;;
37205;SDS011;23099;42.636;23.198;2022-09-06T11:36:58;4.70;;;1.83;;
37205;SDS011;23099;42.636;23.198;2022-09-06T11:39:29;4.13;;;1.90;;
37205;SDS011;23099;42.636;23.198;2022-09-06T11:41:58;4.50;;;2.00;;
37205;SDS011;23099;42.636;23.198;2022-09-06T11:47:38;8.10;;;1.75;;
37205;SDS011;23099;42.636;23.198;2022-09-06T11:50:25;5.40;;;2.10;;
37205;SDS011;23099;42.636;23.198;2022-09-06T11:53:26;5.50;;;1.88;;
37205;SDS011;23099;42.636;23.198;2022-09-06T11:56:10;3.92;;;1.52;;
37205;SDS011;23099;42.636;23.198;2022-09-06T11:58:49;4.68;;;1.58;;
37205;SDS011;23099;42.636;23.198;2022-09-06T12:04:07;5.10;;;1.88;;
37205;SDS011;23099;42.636;23.198;2022-09-06T12:06:35;5.93;;;2.03;;
37205;SDS011;23099;42.636;23.198;2022-09-06T12:11:56;4.13;;;1.50;;
37205;SDS011;23099;42.636;23.198;2022-09-06T12:14:30;4.03;;;1.65;;
37205;SDS011;23099;42.636;23.198;2022-09-06T12:19:50;4.90;;;1.40;;
37205;SDS011;23099;42.636;23.198;2022-09-06T12:25:18;4.18;;;1.70;;
37205;SDS011;23099;42.636;23.198;2022-09-06T12:28:20;3.38;;;1.50;;
37205;SDS011;23099;42.636;23.198;2022-09-06T12:30:50;3.25;;;1.40;;
37205;SDS011;23099;42.636;23.198;2022-09-06T12:33:20;5.22;;;1.55;;
37205;SDS011;23099;42.636;23.198;2022-09-06T12:35:51;5.82;;;1.55;;
37205;SDS011;23099;42.636;23.198;2022-09-06T12:38:21;4.13;;;1.80;;
37205;SDS011;23099;42.636;23.198;2022-09-06T12:40:49;4.78;;;1.75;;
37205;SDS011;23099;42.636;23.198;2022-09-06T12:43:23;2.88;;;1.50;;
37205;SDS011;23099;42.636;23.198;2022-09-06T12:45:51;4.13;;;1.48;;
37205;SDS011;23099;42.636;23.198;2022-09-06T12:48:24;4.35;;;1.33;;
37205;SDS011;23099;42.636;23.198;2022-09-06T12:50:59;3.45;;;1.50;;
37205;SDS011;23099;42.636;23.198;2022-09-06T12:53:27;5.38;;;1.33;;
37205;SDS011;23099;42.636;23.198;2022-09-06T12:56:02;5.20;;;1.30;;
37205;SDS011;23099;42.636;23.198;2022-09-06T12:58:32;3.28;;;1.00;;
37205;SDS011;23099;42.636;23.198;2022-09-06T13:01:02;2.95;;;1.10;;
37205;SDS011;23099;42.636;23.198;2022-09-06T13:03:34;3.28;;;1.20;;
37205;SDS011;23099;42.636;23.198;2022-09-06T13:06:06;4.88;;;1.02;;
37205;SDS011;23099;42.636;23.198;2022-09-06T13:08:36;4.20;;;0.90;;
37205;SDS011;23099;42.636;23.198;2022-09-06T13:11:07;2.28;;;0.70;;
37205;SDS011;23099;42.636;23.198;2022-09-06T13:13:43;2.78;;;0.80;;
37205;SDS011;23099;42.636;23.198;2022-09-06T13:16:17;2.63;;;0.98;;
37205;SDS011;23099;42.636;23.198;2022-09-06T13:18:45;3.38;;;0.90;;
37205;SDS011;23099;42.636;23.198;2022-09-06T13:21:22;3.80;;;0.90;;
37205;SDS011;23099;42.636;23.198;2022-09-06T13:23:50;3.10;;;0.88;;
37205;SDS011;23099;42.636;23.198;2022-09-06T13:26:32;2.20;;;0.85;;
37205;SDS011;23099;42.636;23.198;2022-09-06T13:29:12;3.65;;;1.00;;
37205;SDS011;23099;42.636;23.198;2022-09-06T13:31:48;10.05;;;1.05;;
37205;SDS011;23099;42.636;23.198;2022-09-06T13:34:19;4.28;;;1.10;;
37205;SDS011;23099;42.636;23.198;2022-09-06T13:36:47;2.28;;;0.90;;
37205;SDS011;23099;42.636;23.198;2022-09-06T13:41:59;2.88;;;1.00;;
37205;SDS011;23099;42.636;23.198;2022-09-06T13:44:31;2.58;;;1.00;;
37205;SDS011;23099;42.636;23.198;2022-09-06T13:46:59;4.45;;;0.90;;
37205;SDS011;23099;42.636;23.198;2022-09-06T13:49:26;5.65;;;0.90;;
37205;SDS011;23099;42.636;23.198;2022-09-06T13:51:54;4.63;;;1.00;;
37205;SDS011;23099;42.636;23.198;2022-09-06T13:54:25;4.32;;;0.90;;
37205;SDS011;23099;42.636;23.198;2022-09-06T13:56:52;3.35;;;0.80;;
37205;SDS011;23099;42.636;23.198;2022-09-06T13:59:19;4.18;;;0.98;;
37205;SDS011;23099;42.636;23.198;2022-09-06T14:01:48;7.63;;;1.00;;
37205;SDS011;23099;42.636;23.198;2022-09-06T14:04:23;2.28;;;0.90;;
37205;SDS011;23099;42.636;23.198;2022-09-06T14:06:50;4.03;;;0.88;;
37205;SDS011;23099;42.636;23.198;2022-09-06T14:09:18;5.70;;;1.10;;
37205;SDS011;23099;42.636;23.198;2022-09-06T14:15:00;4.18;;;0.90;;
37205;SDS011;23099;42.636;23.198;2022-09-06T14:17:28;1.98;;;0.80;;
37205;SDS011;23099;42.636;23.198;2022-09-06T14:19:56;4.15;;;1.00;;
37205;SDS011;23099;42.636;23.198;2022-09-06T14:22:23;4.57;;;0.95;;
37205;SDS011;23099;42.636;23.198;2022-09-06T14:24:50;2.88;;;0.95;;
37205;SDS011;23099;42.636;23.198;2022-09-06T14:27:17;3.22;;;0.90;;
37205;SDS011;23099;42.636;23.198;2022-09-06T14:29:43;2.30;;;0.80;;
37205;SDS011;23099;42.636;23.198;2022-09-06T14:32:10;4.95;;;1.05;;
37205;SDS011;23099;42.636;23.198;2022-09-06T14:34:38;3.67;;;0.90;;
37205;SDS011;23099;42.636;23.198;2022-09-06T14:37:05;3.58;;;1.08;;
37205;SDS011;23099;42.636;23.198;2022-09-06T14:39:31;3.38;;;0.90;;
37205;SDS011;23099;42.636;23.198;2022-09-06T14:41:58;3.45;;;1.20;;
37205;SDS011;23099;42.636;23.198;2022-09-06T14:44:25;5.60;;;1.00;;
37205;SDS011;23099;42.636;23.198;2022-09-06T14:46:52;3.35;;;1.10;;
37205;SDS011;23099;42.636;23.198;2022-09-06T14:49:18;3.35;;;1.00;;
37205;SDS011;23099;42.636;23.198;2022-09-06T14:51:47;2.55;;;0.85;;
37205;SDS011;23099;42.636;23.198;2022-09-06T14:54:13;5.80;;;1.15;;
37205;SDS011;23099;42.636;23.198;2022-09-06T14:56:41;3.47;;;1.20;;
37205;SDS011;23099;42.636;23.198;2022-09-06T14:59:08;5.87;;;0.90;;
37205;SDS011;23099;42.636;23.198;2022-09-06T15:01:35;5.13;;;1.15;;
37205;SDS011;23099;42.636;23.198;2022-09-06T15:04:03;4.45;;;1.10;;
37205;SDS011;23099;42.636;23.198;2022-09-06T15:06:31;4.35;;;1.20;;
37205;SDS011;23099;42.636;23.198;2022-09-06T15:09:02;6.15;;;1.02;;
37205;SDS011;23099;42.636;23.198;2022-09-06T15:11:31;2.70;;;1.00;;
37205;SDS011;23099;42.636;23.198;2022-09-06T15:14:00;4.57;;;1.20;;
37205;SDS011;23099;42.636;23.198;2022-09-06T15:16:28;3.78;;;1.27;;
37205;SDS011;23099;42.636;23.198;2022-09-06T15:18:55;2.97;;;1.17;;
37205;SDS011;23099;42.636;23.198;2022-09-06T15:21:22;3.17;;;1.00;;